Nova, Ohio
Current Conditions -  °F | °C
As of 5:52 PM on Wednesday 26 Nov 2014 (Local Time) from KMFD Reporting Station
Overcast Overcast  
Wind Chill: 25°   Ceiling: 2900
Heat Index: 32°   Visibility: 10mi
Dew Point: 26°   Wind: 8mph
Humidity: 79%   Direction: 310°NW
Pressure: 30.03"   Gusts: NA
Location:  41.03°N, 82.3°W
Report Text: KMFD 262252Z 31007KT 10SM OVC029 00/M03 A3003 RMK AO2 SLP184 T00001033
Loading
Personal Weather Stations






























Interactive Weather Map New forecast layout! Learn more

10-Day Weather Forecast

Advertisements
Track Severe Weather on mobile